createdAt,value
2019-05-18T00:00:42.819Z,90.75
2019-05-18T00:01:42.781Z,90.75
2019-05-18T00:02:42.768Z,90.55
2019-05-18T00:03:42.752Z,90.96
2019-05-18T00:04:42.735Z,90.55
2019-05-18T00:05:42.725Z,90.55
2019-05-18T00:06:42.733Z,91.31
2019-05-18T00:07:42.713Z,91.57
2019-05-18T00:08:42.695Z,91.27
2019-05-18T00:09:42.686Z,91.11
2019-05-18T00:10:42.698Z,91.20
2019-05-18T00:11:42.669Z,91.61
2019-05-18T00:12:42.649Z,91.41
2019-05-18T00:13:42.642Z,91.61
2019-05-18T00:14:42.628Z,92.54
2019-05-18T00:15:42.618Z,92.23
2019-05-18T00:16:42.640Z,92.13
2019-05-18T00:17:42.599Z,92.02
2019-05-18T00:18:42.603Z,91.92
2019-05-18T00:19:42.576Z,92.02
2019-05-18T00:20:42.572Z,92.13
2019-05-18T00:21:42.544Z,92.64
2019-05-18T00:22:42.570Z,92.74
2019-05-18T00:23:42.525Z,92.64
2019-05-18T00:24:42.528Z,92.99
2019-05-18T00:25:42.506Z,92.74
2019-05-18T00:26:42.499Z,92.68
2019-05-18T00:27:42.486Z,92.64
2019-05-18T00:28:42.483Z,92.68
2019-05-18T00:29:42.470Z,92.99
2019-05-18T00:30:42.445Z,92.58
2019-05-18T00:31:42.436Z,92.99
2019-05-18T00:32:42.431Z,92.68
2019-05-18T00:33:42.457Z,92.68
2019-05-18T00:34:42.408Z,92.58
2019-05-18T00:35:42.396Z,93.50
2019-05-18T00:36:42.381Z,92.83
2019-05-18T00:37:42.364Z,93.13
2019-05-18T00:38:42.355Z,93.29
2019-05-18T00:39:42.353Z,93.13
2019-05-18T00:40:42.336Z,93.24
2019-05-18T00:41:45.379Z,93.13
2019-05-18T00:42:42.315Z,93.24
2019-05-18T00:43:42.296Z,93.24
2019-05-18T00:44:42.296Z,93.54
2019-05-18T00:45:42.273Z,94.20
2019-05-18T00:46:42.282Z,94.10
2019-05-18T00:47:42.519Z,94.10
2019-05-18T00:48:42.246Z,94.10
2019-05-18T00:49:42.255Z,93.99
2019-05-18T00:50:42.236Z,94.20
2019-05-18T00:51:42.211Z,93.89
2019-05-18T00:52:42.196Z,93.99
2019-05-18T00:53:42.182Z,94.20
2019-05-18T00:54:42.178Z,94.20
2019-05-18T00:55:42.170Z,93.89
2019-05-18T00:56:42.187Z,94.40
2019-05-18T00:57:42.144Z,94.96
2019-05-18T00:58:42.126Z,94.75
2019-05-18T00:59:42.125Z,94.51
2019-05-18T01:00:42.141Z,94.81
2019-05-18T01:01:42.093Z,94.55
2019-05-18T01:02:42.086Z,94.55
2019-05-18T01:03:42.070Z,94.60
2019-05-18T01:04:42.060Z,94.75
2019-05-18T01:05:42.048Z,94.92
2019-05-18T01:06:42.039Z,95.17
2019-05-18T01:07:42.024Z,95.06
2019-05-18T01:08:42.024Z,95.47
2019-05-18T01:09:42.010Z,95.94
2019-05-18T01:10:42.015Z,95.57
2019-05-18T01:11:42.004Z,95.57
2019-05-18T01:12:41.972Z,95.57
2019-05-18T01:13:41.961Z,95.67
2019-05-18T01:14:41.954Z,95.47
2019-05-18T01:15:41.933Z,95.78
2019-05-18T01:16:41.937Z,95.37
2019-05-18T01:17:55.094Z,95.67
2019-05-18T01:18:42.912Z,95.00
2019-05-18T01:19:41.899Z,95.06
2019-05-18T01:20:41.891Z,95.72
2019-05-18T01:21:41.870Z,95.41
2019-05-18T01:22:41.854Z,95.62
2019-05-18T01:23:41.846Z,95.41
2019-05-18T01:24:41.841Z,95.92
2019-05-18T01:25:41.829Z,96.13
2019-05-18T01:26:41.820Z,95.92
2019-05-18T01:27:41.798Z,96.13
2019-05-18T01:28:41.797Z,95.92
2019-05-18T01:29:41.781Z,95.72
2019-05-18T01:30:41.765Z,95.82
2019-05-18T01:31:41.778Z,95.62
2019-05-18T01:32:41.750Z,95.82
2019-05-18T01:33:41.742Z,95.92
2019-05-18T01:34:41.736Z,96.13
2019-05-18T01:35:41.717Z,96.03
2019-05-18T01:36:41.701Z,95.92
2019-05-18T01:37:41.703Z,95.62
2019-05-18T01:38:41.690Z,95.92
2019-05-18T01:39:41.676Z,95.62
2019-05-18T01:40:41.655Z,95.31
2019-05-18T01:41:41.661Z,95.72
2019-05-18T01:42:41.635Z,95.82
2019-05-18T01:43:41.636Z,95.82
2019-05-18T01:44:41.621Z,95.82
2019-05-18T01:45:41.600Z,95.82
2019-05-18T01:46:41.589Z,96.64
2019-05-18T01:47:41.593Z,96.64
2019-05-18T01:48:41.595Z,96.64
2019-05-18T01:49:41.597Z,96.44
2019-05-18T01:50:41.549Z,96.64
2019-05-18T01:51:41.532Z,96.23
2019-05-18T01:52:41.528Z,96.03
2019-05-18T01:53:41.513Z,96.33
2019-05-18T01:54:41.538Z,96.54
2019-05-18T01:55:41.500Z,96.54
2019-05-18T01:56:41.493Z,96.74
2019-05-18T01:57:41.488Z,96.74
2019-05-18T01:58:41.463Z,96.74
2019-05-18T01:59:41.451Z,96.74
2019-05-18T02:00:41.444Z,96.74
2019-05-18T02:01:41.429Z,96.44
2019-05-18T02:02:41.416Z,96.44
2019-05-18T02:03:41.407Z,96.44
2019-05-18T02:04:41.399Z,96.74
2019-05-18T02:05:41.390Z,96.58
2019-05-18T02:06:41.402Z,96.48
2019-05-18T02:07:41.385Z,96.38
2019-05-18T02:08:41.350Z,96.58
2019-05-18T02:09:41.344Z,97.09
2019-05-18T02:10:41.331Z,96.58
2019-05-18T02:11:41.320Z,96.48
2019-05-18T02:12:41.325Z,96.89
2019-05-18T02:13:41.305Z,96.79
2019-05-18T02:14:41.284Z,96.48
2019-05-18T02:15:41.276Z,96.58
2019-05-18T02:16:41.269Z,96.99
2019-05-18T02:17:41.302Z,96.79
2019-05-18T02:18:41.241Z,96.69
2019-05-18T02:19:41.238Z,96.89
2019-05-18T02:20:41.224Z,96.79
2019-05-18T02:21:41.213Z,97.09
2019-05-18T02:22:41.208Z,96.63
2019-05-18T02:23:41.202Z,97.04
2019-05-18T02:24:41.178Z,97.09
2019-05-18T02:25:41.166Z,96.83
2019-05-18T02:26:41.160Z,96.73
2019-05-18T02:27:41.143Z,97.14
2019-05-18T02:28:41.147Z,97.24
2019-05-18T02:29:41.137Z,97.24
2019-05-18T02:30:41.141Z,97.14
2019-05-18T02:31:41.101Z,97.04
2019-05-18T02:32:41.090Z,96.94
2019-05-18T02:33:41.094Z,97.14
2019-05-18T02:34:41.072Z,97.19
2019-05-18T02:35:41.067Z,98.07
2019-05-18T02:36:41.058Z,97.96
2019-05-18T02:37:41.039Z,97.86
2019-05-18T02:38:41.032Z,97.75
2019-05-18T02:39:41.056Z,97.75
2019-05-18T02:40:41.009Z,98.00
2019-05-18T02:41:40.998Z,97.96
2019-05-18T02:42:40.987Z,97.45
2019-05-18T02:43:40.995Z,97.96
2019-05-18T02:44:40.996Z,97.60
2019-05-18T02:45:40.962Z,97.91
2019-05-18T02:46:40.945Z,98.00
2019-05-18T02:47:40.942Z,98.11
2019-05-18T02:48:49.308Z,97.70
2019-05-18T02:49:41.914Z,97.70
2019-05-18T02:50:40.920Z,97.49
2019-05-18T02:51:40.918Z,97.91
2019-05-18T02:52:40.881Z,97.64
2019-05-18T02:53:40.893Z,97.60
2019-05-18T02:54:40.860Z,97.64
2019-05-18T02:55:40.858Z,97.74
2019-05-18T02:56:40.837Z,97.64
2019-05-18T02:57:40.843Z,97.74
2019-05-18T02:58:40.825Z,97.74
2019-05-18T02:59:40.818Z,97.54
2019-05-18T03:00:40.821Z,97.85
2019-05-18T03:01:40.796Z,97.85
2019-05-18T03:02:40.769Z,97.74
2019-05-18T03:03:40.759Z,97.54
2019-05-18T03:04:40.754Z,97.54
2019-05-18T03:05:40.752Z,97.54
2019-05-18T03:06:40.748Z,97.54
2019-05-18T03:07:40.725Z,97.91
2019-05-18T03:08:40.705Z,97.80
2019-05-18T03:09:40.697Z,97.64
2019-05-18T03:10:40.687Z,97.91
2019-05-18T03:11:40.709Z,98.32
2019-05-18T03:12:40.667Z,98.21
2019-05-18T03:13:40.657Z,98.11
2019-05-18T03:14:40.646Z,97.80
2019-05-18T03:15:40.635Z,98.11
2019-05-18T03:16:40.622Z,98.00
2019-05-18T03:17:40.641Z,98.16
2019-05-18T03:18:40.597Z,98.37
2019-05-18T03:19:40.590Z,97.96
2019-05-18T03:20:40.581Z,98.37
2019-05-18T03:21:40.573Z,98.16
2019-05-18T03:22:40.560Z,98.27
2019-05-18T03:23:40.557Z,98.37
2019-05-18T03:24:40.537Z,98.47
2019-05-18T03:25:40.529Z,98.47
2019-05-18T03:26:40.514Z,98.58
2019-05-18T03:27:40.521Z,98.68
2019-05-18T03:28:40.509Z,98.68
2019-05-18T03:29:40.485Z,98.68
2019-05-18T03:30:40.475Z,98.16
2019-05-18T03:31:40.468Z,98.68
2019-05-18T03:32:40.459Z,98.68
2019-05-18T03:33:40.447Z,98.68
2019-05-18T03:34:40.436Z,98.11
2019-05-18T03:35:40.448Z,98.58
2019-05-18T03:36:40.412Z,98.68
2019-05-18T03:37:40.415Z,98.68
2019-05-18T03:38:40.398Z,98.78
2019-05-18T03:39:40.371Z,98.68
2019-05-18T03:40:40.368Z,98.58
2019-05-18T03:41:40.358Z,98.78
2019-05-18T03:42:40.338Z,98.27
2019-05-18T03:43:40.342Z,98.42
2019-05-18T03:44:40.318Z,98.47
2019-05-18T03:45:40.330Z,98.47
2019-05-18T03:46:40.321Z,98.47
2019-05-18T03:47:40.284Z,98.47
2019-05-18T03:48:40.276Z,98.47
2019-05-18T03:49:40.268Z,98.07
2019-05-18T03:50:40.255Z,98.07
2019-05-18T03:51:40.276Z,98.43
2019-05-18T03:52:40.264Z,98.33
2019-05-18T03:53:40.225Z,98.53
2019-05-18T03:54:40.227Z,98.12
2019-05-18T03:55:40.199Z,98.22
2019-05-18T03:56:40.192Z,98.12
2019-05-18T03:57:40.188Z,98.53
2019-05-18T03:58:40.163Z,98.22
2019-05-18T03:59:40.153Z,98.53
2019-05-18T04:00:40.140Z,98.74
2019-05-18T04:01:40.142Z,99.10
2019-05-18T04:02:40.204Z,98.69
2019-05-18T04:03:40.113Z,98.58
2019-05-18T04:04:40.097Z,99.10
2019-05-18T04:05:40.097Z,98.69
2019-05-18T04:06:40.074Z,99.20
2019-05-18T04:07:40.078Z,99.10
2019-05-18T04:08:40.058Z,99.05
2019-05-18T04:09:40.047Z,99.10
2019-05-18T04:10:40.051Z,99.10
2019-05-18T04:11:40.023Z,98.69
2019-05-18T04:12:40.014Z,98.69
2019-05-18T04:13:40.003Z,98.65
2019-05-18T04:14:39.999Z,98.69
2019-05-18T04:15:39.980Z,98.69
2019-05-18T04:16:39.981Z,98.79
2019-05-18T04:17:39.957Z,99.10
2019-05-18T04:18:39.962Z,99.10
2019-05-18T04:19:46.223Z,99.10
2019-05-18T04:20:40.915Z,99.10
2019-05-18T04:21:39.950Z,99.10
2019-05-18T04:22:39.906Z,99.20
2019-05-18T04:23:39.892Z,98.99
2019-05-18T04:24:39.880Z,98.99
2019-05-18T04:25:43.567Z,98.69
2019-05-18T04:26:39.848Z,98.90
2019-05-18T04:27:39.850Z,98.69
2019-05-18T04:28:39.831Z,98.90
2019-05-18T04:29:39.822Z,98.69
2019-05-18T04:30:39.819Z,98.90
2019-05-18T04:31:39.829Z,99.10
2019-05-18T04:32:39.817Z,99.20
2019-05-18T04:33:39.769Z,98.90
2019-05-18T04:34:39.770Z,98.69
2019-05-18T04:35:39.772Z,98.69
2019-05-18T04:36:39.788Z,98.69
2019-05-18T04:37:39.730Z,98.79
2019-05-18T04:38:39.719Z,98.79
2019-05-18T04:39:39.710Z,98.58
2019-05-18T04:40:39.693Z,98.99
2019-05-18T04:41:39.699Z,98.58
2019-05-18T04:42:39.682Z,98.90
2019-05-18T04:43:39.674Z,98.79
2019-05-18T04:44:39.657Z,98.69
2019-05-18T04:45:39.641Z,98.85
2019-05-18T04:46:39.651Z,98.69
2019-05-18T04:47:39.616Z,98.79
2019-05-18T04:48:39.599Z,98.69
2019-05-18T04:49:39.592Z,99.20
2019-05-18T04:50:39.592Z,98.74
2019-05-18T04:51:39.571Z,98.54
2019-05-18T04:52:39.566Z,98.99
2019-05-18T04:53:39.544Z,98.69
2019-05-18T04:54:39.561Z,98.74
2019-05-18T04:55:39.526Z,98.74
2019-05-18T04:56:42.848Z,98.95
2019-05-18T04:57:39.519Z,98.74
2019-05-18T04:58:39.492Z,98.74
2019-05-18T04:59:39.477Z,98.54
2019-05-18T05:00:39.471Z,98.85
2019-05-18T05:01:39.464Z,99.46
2019-05-18T05:02:39.469Z,99.11
2019-05-18T05:03:39.438Z,99.41
2019-05-18T05:04:39.444Z,99.31
2019-05-18T05:05:39.418Z,99.11
2019-05-18T05:06:39.398Z,99.41
2019-05-18T05:07:39.394Z,99.21
2019-05-18T05:08:39.389Z,99.06
2019-05-18T05:09:39.379Z,99.06
2019-05-18T05:10:39.353Z,99.11
2019-05-18T05:11:39.347Z,99.22
2019-05-18T05:12:39.335Z,99.22
2019-05-18T05:13:39.351Z,99.43
2019-05-18T05:14:39.311Z,99.43
2019-05-18T05:15:39.297Z,98.97
2019-05-18T05:16:39.291Z,99.18
2019-05-18T05:17:39.296Z,99.38
2019-05-18T05:18:39.271Z,99.18
2019-05-18T05:19:39.255Z,98.97
2019-05-18T05:20:39.249Z,99.07
2019-05-18T05:21:39.243Z,98.97
2019-05-18T05:22:39.234Z,99.07
2019-05-18T05:23:39.223Z,99.43
2019-05-18T05:24:39.199Z,99.13
2019-05-18T05:25:39.186Z,99.08
2019-05-18T05:26:39.852Z,99.29
2019-05-18T05:27:39.168Z,99.29
2019-05-18T05:28:39.171Z,99.18
2019-05-18T05:29:39.149Z,99.18
2019-05-18T05:30:39.150Z,99.14
2019-05-18T05:31:39.121Z,99.04
2019-05-18T05:32:39.110Z,99.04
2019-05-18T05:33:39.117Z,98.63
2019-05-18T05:34:39.102Z,98.38
2019-05-18T05:35:39.084Z,97.97
2019-05-18T05:36:39.074Z,97.66
2019-05-18T05:37:39.058Z,97.62
2019-05-18T05:38:39.052Z,97.31
2019-05-18T05:39:39.048Z,96.09
2019-05-18T05:40:39.062Z,95.74
2019-05-18T05:41:39.018Z,95.13
2019-05-18T05:42:39.007Z,94.92
2019-05-18T05:43:38.990Z,94.42
2019-05-18T05:44:38.979Z,93.70
2019-05-18T05:45:38.983Z,92.48
2019-05-18T05:46:38.968Z,91.83
2019-05-18T05:47:38.952Z,91.72
2019-05-18T05:48:38.936Z,90.86
2019-05-18T05:49:38.923Z,90.05
2019-05-18T05:50:38.918Z,88.12
2019-05-18T05:51:38.914Z,87.20
2019-05-18T05:52:38.925Z,87.37
2019-05-18T05:53:38.894Z,86.15
2019-05-18T05:54:38.874Z,86.04
2019-05-18T05:55:38.857Z,85.64
2019-05-18T05:56:38.858Z,86.04
2019-05-18T05:57:38.838Z,85.64
2019-05-18T05:58:38.836Z,85.60
2019-05-18T05:59:38.815Z,85.60
2019-05-18T06:00:38.807Z,84.68
2019-05-18T06:01:38.831Z,84.58
2019-05-18T06:02:38.789Z,83.62
2019-05-18T06:03:38.768Z,83.53
2019-05-18T06:04:38.764Z,82.20
2019-05-18T06:05:38.752Z,82.71
2019-05-18T06:06:38.755Z,80.98
2019-05-18T06:07:38.740Z,79.72
2019-05-18T06:08:38.715Z,80.78
2019-05-18T06:09:38.715Z,80.44
2019-05-18T06:10:38.697Z,80.44
2019-05-18T06:11:38.716Z,80.40
2019-05-18T06:12:38.673Z,78.17
2019-05-18T06:13:38.660Z,77.97
2019-05-18T06:14:38.657Z,78.67
2019-05-18T06:15:38.651Z,78.03
2019-05-18T06:16:38.656Z,78.44
2019-05-18T06:17:38.633Z,79.35
2019-05-18T06:18:38.621Z,78.13
2019-05-18T06:19:38.596Z,77.52
2019-05-18T06:20:50.408Z,77.93
2019-05-18T06:21:39.574Z,78.33
2019-05-18T06:22:38.572Z,78.33
2019-05-18T06:23:38.657Z,77.22
2019-05-18T06:24:38.542Z,75.56
2019-05-18T06:25:38.539Z,75.56
2019-05-18T06:26:38.521Z,74.54
2019-05-18T06:27:38.516Z,75.46
2019-05-18T06:28:38.511Z,73.73
2019-05-18T06:29:38.489Z,73.53
2019-05-18T06:30:38.484Z,73.33
2019-05-18T06:31:38.469Z,73.70
2019-05-18T06:32:38.457Z,74.21
2019-05-18T06:33:38.492Z,72.78
2019-05-18T06:34:38.443Z,73.70
2019-05-18T06:35:38.430Z,73.70
2019-05-18T06:36:38.420Z,74.30
2019-05-18T06:37:38.408Z,73.56
2019-05-18T06:38:38.415Z,73.46
2019-05-18T06:39:38.386Z,73.16
2019-05-18T06:40:38.454Z,73.02
2019-05-18T06:41:38.364Z,72.92
2019-05-18T06:42:38.356Z,72.52
2019-05-18T06:43:38.350Z,72.92
2019-05-18T06:44:38.343Z,73.12
2019-05-18T06:45:38.353Z,71.60
2019-05-18T06:46:38.307Z,69.41
2019-05-18T06:47:38.292Z,70.39
2019-05-18T06:48:38.285Z,70.42
2019-05-18T06:49:38.328Z,69.88
2019-05-18T06:50:38.269Z,70.59
2019-05-18T06:51:38.255Z,70.69
2019-05-18T06:52:38.249Z,70.18
2019-05-18T06:53:38.229Z,69.68
2019-05-18T06:54:38.228Z,69.74
2019-05-18T06:55:38.228Z,69.74
2019-05-18T06:56:38.189Z,68.94
2019-05-18T06:57:38.182Z,68.73
2019-05-18T06:58:38.170Z,69.34
2019-05-18T06:59:38.163Z,68.73
2019-05-18T07:00:38.160Z,69.14
2019-05-18T07:01:38.137Z,68.33
2019-05-18T07:02:38.125Z,69.14
2019-05-18T07:03:38.153Z,68.84
2019-05-18T07:04:38.161Z,67.99
2019-05-18T07:05:38.126Z,68.50
2019-05-18T07:06:38.083Z,67.69
2019-05-18T07:07:38.067Z,67.86
2019-05-18T07:08:38.058Z,68.57
2019-05-18T07:09:38.049Z,68.19
2019-05-18T07:10:38.046Z,66.95
2019-05-18T07:11:38.022Z,67.05
2019-05-18T07:12:38.022Z,67.35
2019-05-18T07:13:38.164Z,67.83
2019-05-18T07:14:37.986Z,67.63
2019-05-18T07:15:37.991Z,66.72
2019-05-18T07:16:37.978Z,67.46
2019-05-18T07:17:37.954Z,65.70
2019-05-18T07:18:37.947Z,66.41
2019-05-18T07:19:37.939Z,66.01
2019-05-18T07:20:37.927Z,66.92
2019-05-18T07:21:37.925Z,67.69
2019-05-18T07:22:37.906Z,65.78
2019-05-18T07:23:37.888Z,66.38
2019-05-18T07:24:37.883Z,67.19
2019-05-18T07:25:37.867Z,65.47
2019-05-18T07:26:37.870Z,65.78
2019-05-18T07:27:37.843Z,66.48
2019-05-18T07:28:37.856Z,65.98
2019-05-18T07:29:37.823Z,65.47
2019-05-18T07:30:37.816Z,65.14
2019-05-18T07:31:37.811Z,65.37
2019-05-18T07:32:37.794Z,65.75
2019-05-18T07:33:37.778Z,66.48
2019-05-18T07:34:37.775Z,65.14
2019-05-18T07:35:37.756Z,64.84
2019-05-18T07:36:37.751Z,65.41
2019-05-18T07:37:37.737Z,64.50
2019-05-18T07:38:37.727Z,64.00
2019-05-18T07:39:37.726Z,64.90
2019-05-18T07:40:37.708Z,64.50
2019-05-18T07:41:46.256Z,64.90
2019-05-18T07:42:38.676Z,65.21
2019-05-18T07:43:37.683Z,65.08
2019-05-18T07:44:37.657Z,64.78
2019-05-18T07:45:37.654Z,64.27
2019-05-18T07:46:37.646Z,64.37
2019-05-18T07:47:37.632Z,64.47
2019-05-18T07:48:37.653Z,63.33
2019-05-18T07:49:37.611Z,63.84
2019-05-18T07:50:37.591Z,62.83
2019-05-18T07:51:37.599Z,63.53
2019-05-18T07:52:37.577Z,62.93
2019-05-18T07:53:37.571Z,62.83
2019-05-18T07:54:37.556Z,63.30
2019-05-18T07:55:37.544Z,63.30
2019-05-18T07:56:37.564Z,62.19
2019-05-18T07:57:37.521Z,62.40
2019-05-18T07:58:37.502Z,62.80
2019-05-18T07:59:37.504Z,63.10
2019-05-18T08:00:37.489Z,62.57
2019-05-18T08:01:37.476Z,63.37
2019-05-18T08:02:37.477Z,62.74
2019-05-18T08:03:37.455Z,62.64
2019-05-18T08:04:39.772Z,62.94
2019-05-18T08:05:37.437Z,60.52
2019-05-18T08:06:37.420Z,59.39
2019-05-18T08:07:37.445Z,59.89
2019-05-18T08:08:37.394Z,60.80
2019-05-18T08:09:37.384Z,60.89
2019-05-18T08:10:37.419Z,60.29
2019-05-18T08:11:37.386Z,60.27
2019-05-18T08:12:37.431Z,58.55
2019-05-18T08:13:37.359Z,58.65
2019-05-18T08:14:37.334Z,59.36
2019-05-18T08:15:37.328Z,59.56
2019-05-18T08:16:37.312Z,59.46
2019-05-18T08:17:37.329Z,58.62
2019-05-18T08:18:37.294Z,59.74
2019-05-18T08:19:37.291Z,59.50
2019-05-18T08:20:37.267Z,58.00
2019-05-18T08:21:50.813Z,58.47
2019-05-18T08:22:38.292Z,59.47
2019-05-18T08:23:37.231Z,56.86
2019-05-18T08:24:37.232Z,57.17
2019-05-18T08:25:37.217Z,57.87
2019-05-18T08:26:37.206Z,57.97
2019-05-18T08:27:37.188Z,58.07
2019-05-18T08:28:37.205Z,56.93
2019-05-18T08:29:37.168Z,57.94
2019-05-18T08:30:37.158Z,56.10
2019-05-18T08:31:37.149Z,56.21
2019-05-18T08:32:37.146Z,56.10
2019-05-18T08:33:37.127Z,55.38
2019-05-18T08:34:37.113Z,56.56
2019-05-18T08:35:37.104Z,54.55
2019-05-18T08:36:37.090Z,53.72
2019-05-18T08:37:37.101Z,54.70
2019-05-18T08:38:37.082Z,53.52
2019-05-18T08:39:37.061Z,53.69
2019-05-18T08:40:37.064Z,54.20
2019-05-18T08:41:37.036Z,53.89
2019-05-18T08:42:37.027Z,54.90
2019-05-18T08:43:37.033Z,54.70
2019-05-18T08:44:37.011Z,53.82
2019-05-18T08:45:36.997Z,53.89
2019-05-18T08:46:36.986Z,53.57
2019-05-18T08:47:36.980Z,54.64
2019-05-18T08:48:36.968Z,51.69
2019-05-18T08:49:36.975Z,49.97
2019-05-18T08:50:36.985Z,50.09
2019-05-18T08:51:36.928Z,49.79
2019-05-18T08:52:36.919Z,51.29
2019-05-18T08:53:36.912Z,50.82
2019-05-18T08:54:36.957Z,51.42
2019-05-18T08:55:36.889Z,51.50
2019-05-18T08:56:36.888Z,50.77
2019-05-18T08:57:36.872Z,51.25
2019-05-18T08:58:36.861Z,49.25
2019-05-18T08:59:39.809Z,49.15
2019-05-18T09:00:36.918Z,49.79
2019-05-18T09:01:36.821Z,51.12
2019-05-18T09:02:36.810Z,52.12
2019-05-18T09:03:36.800Z,51.79
2019-05-18T09:04:36.796Z,50.89
2019-05-18T09:05:36.793Z,48.77
2019-05-18T09:06:36.778Z,49.17
2019-05-18T09:07:36.771Z,49.37
2019-05-18T09:08:36.746Z,48.77
2019-05-18T09:09:36.738Z,49.05
2019-05-18T09:10:36.741Z,49.05
2019-05-18T09:11:36.720Z,49.72
2019-05-18T09:12:36.723Z,50.72
2019-05-18T09:13:36.694Z,48.40
2019-05-18T09:14:36.683Z,48.80
2019-05-18T09:15:36.703Z,49.10
2019-05-18T09:16:36.665Z,47.60
2019-05-18T09:17:36.665Z,49.20
2019-05-18T09:18:36.649Z,49.40
2019-05-18T09:19:36.667Z,47.78
2019-05-18T09:20:36.637Z,48.48
2019-05-18T09:21:36.627Z,48.58
2019-05-18T09:22:36.612Z,48.55
2019-05-18T09:23:36.599Z,49.03
2019-05-18T09:24:36.585Z,48.23
2019-05-18T09:25:36.571Z,45.92
2019-05-18T09:26:36.576Z,46.73
2019-05-18T09:27:36.559Z,46.46
2019-05-18T09:28:36.542Z,47.36
2019-05-18T09:29:36.534Z,47.78
2019-05-18T09:30:36.524Z,46.78
2019-05-18T09:31:36.524Z,46.86
2019-05-18T09:32:36.502Z,46.56
2019-05-18T09:33:36.490Z,46.44
2019-05-18T09:34:36.491Z,45.64
2019-05-18T09:35:36.473Z,44.27
2019-05-18T09:36:36.489Z,46.06
2019-05-18T09:37:36.467Z,46.66
2019-05-18T09:38:36.445Z,46.16
2019-05-18T09:39:36.429Z,44.96
2019-05-18T09:40:36.422Z,46.88
2019-05-18T09:41:36.415Z,46.78
2019-05-18T09:42:36.438Z,45.66
2019-05-18T09:43:36.392Z,46.46
2019-05-18T09:44:36.379Z,46.66
2019-05-18T09:45:36.372Z,44.74
2019-05-18T09:46:36.419Z,44.65
2019-05-18T09:47:36.348Z,45.72
2019-05-18T09:48:36.349Z,44.12
2019-05-18T09:49:36.353Z,43.73
2019-05-18T09:50:36.320Z,43.52
2019-05-18T09:51:36.310Z,44.62
2019-05-18T09:52:44.920Z,43.43
2019-05-18T09:53:50.467Z,44.12
2019-05-18T09:54:37.278Z,44.80
2019-05-18T09:55:36.275Z,43.90
2019-05-18T09:56:36.252Z,43.90
2019-05-18T09:57:36.251Z,44.80
2019-05-18T09:58:36.263Z,44.40
2019-05-18T09:59:36.228Z,43.51
2019-05-18T10:00:38.988Z,43.51
2019-05-18T10:01:36.201Z,41.79
2019-05-18T10:02:36.194Z,41.99
2019-05-18T10:03:36.181Z,40.90
2019-05-18T10:04:36.211Z,40.22
2019-05-18T10:05:36.169Z,42.43
2019-05-18T10:06:36.163Z,42.43
2019-05-18T10:07:36.150Z,42.81
2019-05-18T10:08:36.135Z,42.41
2019-05-18T10:09:39.249Z,40.52
2019-05-18T10:10:36.129Z,40.74
2019-05-18T10:11:38.564Z,41.63
2019-05-18T10:12:36.112Z,40.16
2019-05-18T10:13:36.090Z,41.16
2019-05-18T10:14:36.073Z,40.44
2019-05-18T10:15:36.063Z,41.03
2019-05-18T10:16:36.067Z,42.53
2019-05-18T10:17:36.084Z,42.53
2019-05-18T10:18:36.033Z,41.82
2019-05-18T10:19:36.016Z,41.02
2019-05-18T10:20:36.022Z,42.61
2019-05-18T10:21:36.002Z,41.69
2019-05-18T10:22:36.016Z,41.69
2019-05-18T10:23:35.986Z,41.39
2019-05-18T10:24:35.971Z,41.50
2019-05-18T10:25:35.986Z,41.99
2019-05-18T10:26:35.958Z,41.20
2019-05-18T10:27:35.945Z,41.60
2019-05-18T10:28:35.943Z,41.39
2019-05-18T10:29:35.929Z,42.19
2019-05-18T10:30:35.906Z,41.82
2019-05-18T10:31:35.900Z,42.01
2019-05-18T10:32:35.885Z,41.91
2019-05-18T10:33:35.897Z,41.82
2019-05-18T10:34:35.865Z,42.51
2019-05-18T10:35:35.865Z,40.70
2019-05-18T10:36:35.851Z,42.29
2019-05-18T10:37:35.839Z,41.77
2019-05-18T10:38:35.831Z,42.47
2019-05-18T10:39:38.609Z,41.74
2019-05-18T10:40:35.799Z,40.74
2019-05-18T10:41:35.801Z,41.71
2019-05-18T10:42:35.781Z,40.64
2019-05-18T10:43:35.776Z,40.86
2019-05-18T10:44:35.768Z,42.13
2019-05-18T10:45:35.760Z,40.84
2019-05-18T10:46:35.739Z,41.14
2019-05-18T10:47:35.729Z,39.75
2019-05-18T10:48:35.729Z,40.64
2019-05-18T10:49:35.756Z,41.06
2019-05-18T10:50:35.702Z,40.68
2019-05-18T10:51:35.688Z,41.69
2019-05-18T10:52:35.685Z,41.09
2019-05-18T10:53:35.673Z,40.80
2019-05-18T10:54:35.686Z,41.20
2019-05-18T10:55:35.663Z,42.17
2019-05-18T10:56:35.638Z,41.77
2019-05-18T10:57:35.626Z,41.08
2019-05-18T10:58:35.654Z,42.35
2019-05-18T10:59:35.613Z,42.43
2019-05-18T11:00:35.608Z,42.01
2019-05-18T11:01:35.589Z,38.24
2019-05-18T11:02:35.616Z,37.94
2019-05-18T11:03:35.571Z,40.24
2019-05-18T11:04:35.574Z,39.57
2019-05-18T11:05:35.551Z,40.26
2019-05-18T11:06:35.557Z,41.16
2019-05-18T11:07:35.538Z,39.95
2019-05-18T11:08:38.264Z,40.74
2019-05-18T11:09:35.522Z,41.34
2019-05-18T11:10:35.540Z,40.14
2019-05-18T11:11:35.488Z,39.95
2019-05-18T11:12:35.475Z,39.67
2019-05-18T11:13:35.466Z,41.06
2019-05-18T11:14:35.452Z,40.86
2019-05-18T11:15:35.448Z,39.83
2019-05-18T11:16:35.464Z,39.41
2019-05-18T11:17:35.426Z,38.71
2019-05-18T11:18:35.417Z,38.73
2019-05-18T11:19:35.409Z,39.73
2019-05-18T11:20:35.423Z,39.13
2019-05-18T11:21:35.396Z,39.83
2019-05-18T11:22:35.391Z,40.33
2019-05-18T11:23:43.285Z,38.54
2019-05-18T11:24:36.356Z,39.31
2019-05-18T11:25:35.344Z,39.81
2019-05-18T11:26:35.339Z,39.49
2019-05-18T11:27:35.331Z,41.06
2019-05-18T11:28:35.326Z,38.28
2019-05-18T11:29:35.363Z,37.88
2019-05-18T11:30:35.302Z,38.07
2019-05-18T11:31:35.314Z,37.82
2019-05-18T11:32:35.291Z,39.75
2019-05-18T11:33:35.264Z,40.68
2019-05-18T11:34:35.250Z,39.57
2019-05-18T11:35:35.247Z,39.95
2019-05-18T11:36:35.233Z,38.85
2019-05-18T11:37:35.234Z,38.35
2019-05-18T11:38:35.222Z,39.65
2019-05-18T11:39:35.227Z,38.77
2019-05-18T11:40:35.187Z,39.75
2019-05-18T11:41:35.192Z,40.52
2019-05-18T11:42:35.197Z,39.43
2019-05-18T11:43:35.160Z,39.98
2019-05-18T11:44:35.159Z,38.68
2019-05-18T11:45:35.137Z,38.68
2019-05-18T11:46:35.127Z,39.67
2019-05-18T11:47:35.121Z,38.07
2019-05-18T11:48:35.127Z,38.26
2019-05-18T11:49:35.204Z,37.75
2019-05-18T11:50:35.090Z,38.64
2019-05-18T11:51:35.076Z,37.93
2019-05-18T11:52:35.071Z,37.04
2019-05-18T11:53:35.073Z,37.45
2019-05-18T11:54:35.046Z,39.15
2019-05-18T11:55:35.044Z,39.34
2019-05-18T11:56:35.043Z,38.66
2019-05-18T11:57:35.020Z,38.66
2019-05-18T11:58:35.022Z,38.05
2019-05-18T11:59:35.005Z,38.09
2019-05-18T12:00:34.994Z,39.29
2019-05-18T12:01:34.987Z,39.29
2019-05-18T12:02:34.971Z,39.71
2019-05-18T12:03:34.960Z,38.18
2019-05-18T12:04:35.019Z,39.90
2019-05-18T12:05:34.937Z,40.74
2019-05-18T12:06:34.936Z,41.03
2019-05-18T12:07:34.932Z,40.94
2019-05-18T12:08:34.993Z,40.70
2019-05-18T12:09:34.899Z,41.04
2019-05-18T12:10:34.892Z,40.03
2019-05-18T12:11:34.878Z,38.71
2019-05-18T12:12:34.858Z,38.71
2019-05-18T12:13:34.847Z,38.26
2019-05-18T12:14:34.851Z,39.48
2019-05-18T12:15:34.834Z,39.76
2019-05-18T12:16:34.822Z,38.14
2019-05-18T12:17:34.814Z,37.82
2019-05-18T12:18:34.795Z,37.96
2019-05-18T12:19:34.818Z,36.24
2019-05-18T12:20:34.788Z,37.20
2019-05-18T12:21:34.772Z,33.92
2019-05-18T12:22:34.759Z,32.35
2019-05-18T12:23:34.744Z,34.13
2019-05-18T12:24:34.766Z,34.94
2019-05-18T12:25:34.777Z,33.85
2019-05-18T12:26:34.718Z,34.45
2019-05-18T12:27:34.707Z,35.34
2019-05-18T12:28:34.695Z,33.75
2019-05-18T12:29:34.706Z,34.05
2019-05-18T12:30:34.702Z,34.03
2019-05-18T12:31:34.666Z,35.32
2019-05-18T12:32:34.657Z,35.50
2019-05-18T12:33:34.679Z,34.12
2019-05-18T12:34:34.633Z,34.43
2019-05-18T12:35:34.625Z,33.64
2019-05-18T12:36:34.643Z,34.12
2019-05-18T12:37:34.604Z,34.00
2019-05-18T12:38:34.605Z,33.29
2019-05-18T12:39:34.588Z,33.37
2019-05-18T12:40:34.589Z,32.60
2019-05-18T12:41:34.570Z,33.49
2019-05-18T12:42:34.582Z,32.60
2019-05-18T12:43:34.554Z,33.31
2019-05-18T12:44:34.547Z,33.51
2019-05-18T12:45:34.533Z,32.21
2019-05-18T12:46:34.519Z,32.80
2019-05-18T12:47:34.503Z,32.81
2019-05-18T12:48:34.537Z,33.70
2019-05-18T12:49:34.501Z,34.86
2019-05-18T12:50:34.473Z,33.87
2019-05-18T12:51:34.456Z,34.18
2019-05-18T12:52:34.452Z,34.31